sensor_id;sensor_type;location;lat;lon;timestamp;temperature;humidity
39957;DHT22;48483;44.640;7.494;2023-03-01T00:00:05;4.80;99.90
39957;DHT22;48483;44.640;7.494;2023-03-01T00:02:37;4.80;99.90
39957;DHT22;48483;44.640;7.494;2023-03-01T00:05:05;4.80;99.90
39957;DHT22;48483;44.640;7.494;2023-03-01T00:07:35;4.80;99.90
39957;DHT22;48483;44.640;7.494;2023-03-01T00:10:01;4.80;99.90
39957;DHT22;48483;44.640;7.494;2023-03-01T00:12:28;4.80;99.90
39957;DHT22;48483;44.640;7.494;2023-03-01T00:14:54;4.80;99.90
39957;DHT22;48483;44.640;7.494;2023-03-01T00:17:21;4.80;99.90
39957;DHT22;48483;44.640;7.494;2023-03-01T00:19:47;4.80;99.90
39957;DHT22;48483;44.640;7.494;2023-03-01T00:22:14;4.80;99.90
39957;DHT22;48483;44.640;7.494;2023-03-01T00:24:42;4.80;99.90
39957;DHT22;48483;44.640;7.494;2023-03-01T00:27:08;4.70;99.90
39957;DHT22;48483;44.640;7.494;2023-03-01T00:29:35;4.70;99.90
39957;DHT22;48483;44.640;7.494;2023-03-01T00:32:01;4.70;99.90
39957;DHT22;48483;44.640;7.494;2023-03-01T00:34:28;4.70;99.90
39957;DHT22;48483;44.640;7.494;2023-03-01T00:36:54;4.70;99.90
39957;DHT22;48483;44.640;7.494;2023-03-01T00:39:21;4.70;99.90
39957;DHT22;48483;44.640;7.494;2023-03-01T00:41:49;4.70;99.90
39957;DHT22;48483;44.640;7.494;2023-03-01T00:44:15;4.70;99.90
39957;DHT22;48483;44.640;7.494;2023-03-01T00:46:42;4.70;99.90
39957;DHT22;48483;44.640;7.494;2023-03-01T00:49:08;4.70;99.90
39957;DHT22;48483;44.640;7.494;2023-03-01T00:51:35;4.70;99.90
39957;DHT22;48483;44.640;7.494;2023-03-01T00:54:02;4.70;99.90
39957;DHT22;48483;44.640;7.494;2023-03-01T00:56:30;4.70;99.90
39957;DHT22;48483;44.640;7.494;2023-03-01T00:58:58;4.70;99.90
39957;DHT22;48483;44.640;7.494;2023-03-01T01:01:26;4.70;99.90
39957;DHT22;48483;44.640;7.494;2023-03-01T01:03:56;4.70;99.90
39957;DHT22;48483;44.640;7.494;2023-03-01T01:06:25;4.60;99.90
39957;DHT22;48483;44.640;7.494;2023-03-01T01:08:53;4.60;99.90
39957;DHT22;48483;44.640;7.494;2023-03-01T01:11:21;4.70;99.90
39957;DHT22;48483;44.640;7.494;2023-03-01T01:13:49;4.70;99.90
39957;DHT22;48483;44.640;7.494;2023-03-01T01:16:18;4.70;99.90
39957;DHT22;48483;44.640;7.494;2023-03-01T01:18:46;4.70;99.90
39957;DHT22;48483;44.640;7.494;2023-03-01T01:21:14;4.70;99.90
39957;DHT22;48483;44.640;7.494;2023-03-01T01:23:42;4.70;99.90
39957;DHT22;48483;44.640;7.494;2023-03-01T01:26:10;4.70;99.90
39957;DHT22;48483;44.640;7.494;2023-03-01T01:28:37;4.70;99.90
39957;DHT22;48483;44.640;7.494;2023-03-01T01:31:04;4.70;99.90
39957;DHT22;48483;44.640;7.494;2023-03-01T01:33:32;4.70;99.90
39957;DHT22;48483;44.640;7.494;2023-03-01T01:35:59;4.60;99.90
39957;DHT22;48483;44.640;7.494;2023-03-01T01:38:26;4.70;99.90
39957;DHT22;48483;44.640;7.494;2023-03-01T01:40:52;4.70;99.90
39957;DHT22;48483;44.640;7.494;2023-03-01T01:43:22;4.70;99.90
39957;DHT22;48483;44.640;7.494;2023-03-01T01:45:52;4.70;99.90
39957;DHT22;48483;44.640;7.494;2023-03-01T01:48:21;4.60;99.90
39957;DHT22;48483;44.640;7.494;2023-03-01T01:50:55;4.60;99.90
39957;DHT22;48483;44.640;7.494;2023-03-01T01:53:23;4.60;99.90
39957;DHT22;48483;44.640;7.494;2023-03-01T01:55:53;4.60;99.90
39957;DHT22;48483;44.640;7.494;2023-03-01T01:58:24;4.60;99.90
39957;DHT22;48483;44.640;7.494;2023-03-01T02:00:53;4.60;99.90
39957;DHT22;48483;44.640;7.494;2023-03-01T02:03:23;4.60;99.90
39957;DHT22;48483;44.640;7.494;2023-03-01T02:05:57;4.60;99.90
39957;DHT22;48483;44.640;7.494;2023-03-01T02:08:27;4.60;99.90
39957;DHT22;48483;44.640;7.494;2023-03-01T02:10:56;4.60;99.90
39957;DHT22;48483;44.640;7.494;2023-03-01T02:13:23;4.60;99.90
39957;DHT22;48483;44.640;7.494;2023-03-01T02:15:50;4.60;99.90
39957;DHT22;48483;44.640;7.494;2023-03-01T02:18:18;4.70;99.90
39957;DHT22;48483;44.640;7.494;2023-03-01T02:20:56;4.70;99.90
39957;DHT22;48483;44.640;7.494;2023-03-01T02:23:24;4.70;99.90
39957;DHT22;48483;44.640;7.494;2023-03-01T02:25:57;4.70;99.90
39957;DHT22;48483;44.640;7.494;2023-03-01T02:28:30;4.70;99.90
39957;DHT22;48483;44.640;7.494;2023-03-01T02:30:57;4.70;99.90
39957;DHT22;48483;44.640;7.494;2023-03-01T02:33:43;4.70;99.90
39957;DHT22;48483;44.640;7.494;2023-03-01T02:36:13;4.70;99.90
39957;DHT22;48483;44.640;7.494;2023-03-01T02:38:41;4.70;99.90
39957;DHT22;48483;44.640;7.494;2023-03-01T02:41:09;4.70;99.90
39957;DHT22;48483;44.640;7.494;2023-03-01T02:43:38;4.70;99.90
39957;DHT22;48483;44.640;7.494;2023-03-01T02:46:06;4.70;99.90
39957;DHT22;48483;44.640;7.494;2023-03-01T02:48:41;4.70;99.90
39957;DHT22;48483;44.640;7.494;2023-03-01T02:51:19;4.70;99.90
39957;DHT22;48483;44.640;7.494;2023-03-01T02:53:58;4.70;99.90
39957;DHT22;48483;44.640;7.494;2023-03-01T02:56:28;4.70;99.90
39957;DHT22;48483;44.640;7.494;2023-03-01T02:58:57;4.80;99.90
39957;DHT22;48483;44.640;7.494;2023-03-01T03:01:28;4.80;99.90
39957;DHT22;48483;44.640;7.494;2023-03-01T03:04:06;4.90;99.90
39957;DHT22;48483;44.640;7.494;2023-03-01T03:06:33;4.90;99.90
39957;DHT22;48483;44.640;7.494;2023-03-01T03:09:01;4.90;99.90
39957;DHT22;48483;44.640;7.494;2023-03-01T03:11:28;4.90;99.90
39957;DHT22;48483;44.640;7.494;2023-03-01T03:13:56;5.00;99.90
39957;DHT22;48483;44.640;7.494;2023-03-01T03:16:24;5.00;99.90
39957;DHT22;48483;44.640;7.494;2023-03-01T03:18:51;5.00;99.90
39957;DHT22;48483;44.640;7.494;2023-03-01T03:21:17;5.00;99.90
39957;DHT22;48483;44.640;7.494;2023-03-01T03:23:44;5.00;99.90
39957;DHT22;48483;44.640;7.494;2023-03-01T03:26:11;5.00;99.90
39957;DHT22;48483;44.640;7.494;2023-03-01T03:28:39;5.00;99.90
39957;DHT22;48483;44.640;7.494;2023-03-01T03:31:07;5.10;99.90
39957;DHT22;48483;44.640;7.494;2023-03-01T03:33:34;5.10;99.90
39957;DHT22;48483;44.640;7.494;2023-03-01T03:36:01;5.10;99.90
39957;DHT22;48483;44.640;7.494;2023-03-01T03:38:27;5.10;99.90
39957;DHT22;48483;44.640;7.494;2023-03-01T03:41:01;5.10;99.90
39957;DHT22;48483;44.640;7.494;2023-03-01T03:43:30;5.10;99.90
39957;DHT22;48483;44.640;7.494;2023-03-01T03:45:57;5.10;99.90
39957;DHT22;48483;44.640;7.494;2023-03-01T03:48:25;5.10;99.90
39957;DHT22;48483;44.640;7.494;2023-03-01T03:50:54;5.10;99.90
39957;DHT22;48483;44.640;7.494;2023-03-01T03:53:22;5.10;99.90
39957;DHT22;48483;44.640;7.494;2023-03-01T03:55:49;5.10;99.90
39957;DHT22;48483;44.640;7.494;2023-03-01T03:58:16;5.10;99.90
39957;DHT22;48483;44.640;7.494;2023-03-01T04:00:47;5.10;99.90
39957;DHT22;48483;44.640;7.494;2023-03-01T04:03:15;5.10;99.90
39957;DHT22;48483;44.640;7.494;2023-03-01T04:05:44;5.00;99.90
39957;DHT22;48483;44.640;7.494;2023-03-01T04:08:11;5.00;99.90
39957;DHT22;48483;44.640;7.494;2023-03-01T04:10:39;5.00;99.90
39957;DHT22;48483;44.640;7.494;2023-03-01T04:13:10;5.00;99.90
39957;DHT22;48483;44.640;7.494;2023-03-01T04:15:37;5.00;99.90
39957;DHT22;48483;44.640;7.494;2023-03-01T04:18:05;4.90;99.90
39957;DHT22;48483;44.640;7.494;2023-03-01T04:20:34;4.90;99.90
39957;DHT22;48483;44.640;7.494;2023-03-01T04:23:04;4.90;99.90
39957;DHT22;48483;44.640;7.494;2023-03-01T04:25:40;4.90;99.90
39957;DHT22;48483;44.640;7.494;2023-03-01T04:28:08;4.90;99.90
39957;DHT22;48483;44.640;7.494;2023-03-01T04:30:35;4.80;99.90
39957;DHT22;48483;44.640;7.494;2023-03-01T04:33:03;4.80;99.90
39957;DHT22;48483;44.640;7.494;2023-03-01T04:35:30;4.80;99.90
39957;DHT22;48483;44.640;7.494;2023-03-01T04:37:57;4.80;99.90
39957;DHT22;48483;44.640;7.494;2023-03-01T04:40:24;4.80;99.90
39957;DHT22;48483;44.640;7.494;2023-03-01T04:42:51;4.80;99.90
39957;DHT22;48483;44.640;7.494;2023-03-01T04:45:18;4.80;99.90
39957;DHT22;48483;44.640;7.494;2023-03-01T04:47:46;4.80;99.90
39957;DHT22;48483;44.640;7.494;2023-03-01T04:50:16;4.80;99.90
39957;DHT22;48483;44.640;7.494;2023-03-01T04:52:44;4.80;99.90
39957;DHT22;48483;44.640;7.494;2023-03-01T04:55:12;4.80;99.90
39957;DHT22;48483;44.640;7.494;2023-03-01T04:57:40;4.80;99.90
39957;DHT22;48483;44.640;7.494;2023-03-01T05:00:10;4.80;99.90
39957;DHT22;48483;44.640;7.494;2023-03-01T05:02:51;4.80;99.90
39957;DHT22;48483;44.640;7.494;2023-03-01T05:05:20;4.80;99.90
39957;DHT22;48483;44.640;7.494;2023-03-01T05:07:47;4.80;99.90
39957;DHT22;48483;44.640;7.494;2023-03-01T05:10:14;4.90;99.90
39957;DHT22;48483;44.640;7.494;2023-03-01T05:12:42;4.90;99.90
39957;DHT22;48483;44.640;7.494;2023-03-01T05:15:10;4.80;99.90
39957;DHT22;48483;44.640;7.494;2023-03-01T05:17:36;4.80;99.90
39957;DHT22;48483;44.640;7.494;2023-03-01T05:20:03;4.80;99.90
39957;DHT22;48483;44.640;7.494;2023-03-01T05:22:35;4.80;99.90
39957;DHT22;48483;44.640;7.494;2023-03-01T05:25:02;4.80;99.90
39957;DHT22;48483;44.640;7.494;2023-03-01T05:27:29;4.70;99.90
39957;DHT22;48483;44.640;7.494;2023-03-01T05:29:57;4.70;99.90
39957;DHT22;48483;44.640;7.494;2023-03-01T05:32:23;4.70;99.90
39957;DHT22;48483;44.640;7.494;2023-03-01T05:34:50;4.70;99.90
39957;DHT22;48483;44.640;7.494;2023-03-01T05:37:18;4.70;99.90
39957;DHT22;48483;44.640;7.494;2023-03-01T05:39:45;4.70;99.90
39957;DHT22;48483;44.640;7.494;2023-03-01T05:42:12;4.70;99.90
39957;DHT22;48483;44.640;7.494;2023-03-01T05:44:38;4.70;99.90
39957;DHT22;48483;44.640;7.494;2023-03-01T05:47:06;4.70;99.90
39957;DHT22;48483;44.640;7.494;2023-03-01T05:49:33;4.70;99.90
39957;DHT22;48483;44.640;7.494;2023-03-01T05:52:00;4.70;99.90
39957;DHT22;48483;44.640;7.494;2023-03-01T05:54:26;4.70;99.90
39957;DHT22;48483;44.640;7.494;2023-03-01T05:56:53;4.70;99.90
39957;DHT22;48483;44.640;7.494;2023-03-01T05:59:20;4.70;99.90
39957;DHT22;48483;44.640;7.494;2023-03-01T06:01:47;4.70;99.90
39957;DHT22;48483;44.640;7.494;2023-03-01T06:04:14;4.70;99.90
39957;DHT22;48483;44.640;7.494;2023-03-01T06:06:41;4.70;99.90
39957;DHT22;48483;44.640;7.494;2023-03-01T06:09:08;4.70;99.90
39957;DHT22;48483;44.640;7.494;2023-03-01T06:11:36;4.70;99.90
39957;DHT22;48483;44.640;7.494;2023-03-01T06:14:04;4.70;99.90
39957;DHT22;48483;44.640;7.494;2023-03-01T06:16:30;4.70;99.90
39957;DHT22;48483;44.640;7.494;2023-03-01T06:18:57;4.70;99.90
39957;DHT22;48483;44.640;7.494;2023-03-01T06:21:25;4.70;99.90
39957;DHT22;48483;44.640;7.494;2023-03-01T06:23:51;4.70;99.90
39957;DHT22;48483;44.640;7.494;2023-03-01T06:26:18;4.70;99.90
39957;DHT22;48483;44.640;7.494;2023-03-01T06:28:44;4.70;99.90
39957;DHT22;48483;44.640;7.494;2023-03-01T06:31:12;4.70;99.90
39957;DHT22;48483;44.640;7.494;2023-03-01T06:33:38;4.70;99.90
39957;DHT22;48483;44.640;7.494;2023-03-01T06:36:06;4.70;99.90
39957;DHT22;48483;44.640;7.494;2023-03-01T06:38:34;4.70;99.90
39957;DHT22;48483;44.640;7.494;2023-03-01T06:41:01;4.80;99.90
39957;DHT22;48483;44.640;7.494;2023-03-01T06:43:28;4.80;99.90
39957;DHT22;48483;44.640;7.494;2023-03-01T06:45:54;4.80;99.90
39957;DHT22;48483;44.640;7.494;2023-03-01T06:48:21;4.80;99.90
39957;DHT22;48483;44.640;7.494;2023-03-01T06:50:47;4.80;99.90
39957;DHT22;48483;44.640;7.494;2023-03-01T06:53:14;4.70;99.90
39957;DHT22;48483;44.640;7.494;2023-03-01T06:55:42;4.80;99.90
39957;DHT22;48483;44.640;7.494;2023-03-01T06:58:09;4.80;99.90
39957;DHT22;48483;44.640;7.494;2023-03-01T07:00:36;4.80;99.90
39957;DHT22;48483;44.640;7.494;2023-03-01T07:03:03;4.80;99.90
39957;DHT22;48483;44.640;7.494;2023-03-01T07:05:30;4.70;99.90
39957;DHT22;48483;44.640;7.494;2023-03-01T07:07:56;4.70;99.90
39957;DHT22;48483;44.640;7.494;2023-03-01T07:10:23;4.70;99.90
39957;DHT22;48483;44.640;7.494;2023-03-01T07:12:54;4.80;99.90
39957;DHT22;48483;44.640;7.494;2023-03-01T07:15:21;4.80;99.90
39957;DHT22;48483;44.640;7.494;2023-03-01T07:17:47;4.80;99.90
39957;DHT22;48483;44.640;7.494;2023-03-01T07:20:17;4.80;99.90
39957;DHT22;48483;44.640;7.494;2023-03-01T07:22:44;4.80;99.90
39957;DHT22;48483;44.640;7.494;2023-03-01T07:25:11;4.80;99.90
39957;DHT22;48483;44.640;7.494;2023-03-01T07:27:37;4.80;99.90
39957;DHT22;48483;44.640;7.494;2023-03-01T07:30:07;4.90;99.90
39957;DHT22;48483;44.640;7.494;2023-03-01T07:32:33;4.90;99.90
39957;DHT22;48483;44.640;7.494;2023-03-01T07:35:00;4.90;99.90
39957;DHT22;48483;44.640;7.494;2023-03-01T07:37:27;4.90;99.90
39957;DHT22;48483;44.640;7.494;2023-03-01T07:39:53;4.80;99.90
39957;DHT22;48483;44.640;7.494;2023-03-01T07:42:20;4.90;99.90
39957;DHT22;48483;44.640;7.494;2023-03-01T07:44:46;4.90;99.90
39957;DHT22;48483;44.640;7.494;2023-03-01T07:47:14;4.90;99.90
39957;DHT22;48483;44.640;7.494;2023-03-01T07:49:41;4.90;99.90
39957;DHT22;48483;44.640;7.494;2023-03-01T07:52:10;4.90;99.90
39957;DHT22;48483;44.640;7.494;2023-03-01T07:54:38;5.00;99.90
39957;DHT22;48483;44.640;7.494;2023-03-01T07:57:04;5.00;99.90
39957;DHT22;48483;44.640;7.494;2023-03-01T07:59:31;5.00;99.90
39957;DHT22;48483;44.640;7.494;2023-03-01T08:01:58;5.00;99.90
39957;DHT22;48483;44.640;7.494;2023-03-01T08:04:26;5.00;99.90
39957;DHT22;48483;44.640;7.494;2023-03-01T08:06:53;5.00;99.90
39957;DHT22;48483;44.640;7.494;2023-03-01T08:09:20;5.10;99.90
39957;DHT22;48483;44.640;7.494;2023-03-01T08:11:46;5.00;99.90
39957;DHT22;48483;44.640;7.494;2023-03-01T08:14:13;5.10;99.90
39957;DHT22;48483;44.640;7.494;2023-03-01T08:16:39;5.10;99.90
39957;DHT22;48483;44.640;7.494;2023-03-01T08:19:07;5.10;99.90
39957;DHT22;48483;44.640;7.494;2023-03-01T08:21:35;5.20;99.90
39957;DHT22;48483;44.640;7.494;2023-03-01T08:24:02;5.30;99.90
39957;DHT22;48483;44.640;7.494;2023-03-01T08:26:29;5.30;99.90
39957;DHT22;48483;44.640;7.494;2023-03-01T08:28:56;5.30;99.90
39957;DHT22;48483;44.640;7.494;2023-03-01T08:31:25;5.40;99.90
39957;DHT22;48483;44.640;7.494;2023-03-01T08:33:54;5.50;99.90
39957;DHT22;48483;44.640;7.494;2023-03-01T08:36:25;5.60;99.90
39957;DHT22;48483;44.640;7.494;2023-03-01T08:38:53;5.60;99.90
39957;DHT22;48483;44.640;7.494;2023-03-01T08:41:20;5.60;99.90
39957;DHT22;48483;44.640;7.494;2023-03-01T08:43:47;5.70;99.90
39957;DHT22;48483;44.640;7.494;2023-03-01T08:46:13;5.70;99.90
39957;DHT22;48483;44.640;7.494;2023-03-01T08:48:40;5.70;99.90
39957;DHT22;48483;44.640;7.494;2023-03-01T08:51:10;5.70;99.90
39957;DHT22;48483;44.640;7.494;2023-03-01T08:53:37;5.70;99.90
39957;DHT22;48483;44.640;7.494;2023-03-01T08:56:06;5.70;99.90
39957;DHT22;48483;44.640;7.494;2023-03-01T08:58:33;5.70;99.90
39957;DHT22;48483;44.640;7.494;2023-03-01T09:01:00;5.80;99.90
39957;DHT22;48483;44.640;7.494;2023-03-01T09:03:27;5.80;99.90
39957;DHT22;48483;44.640;7.494;2023-03-01T09:06:00;5.80;99.90
39957;DHT22;48483;44.640;7.494;2023-03-01T09:08:27;5.90;99.90
39957;DHT22;48483;44.640;7.494;2023-03-01T09:10:54;5.90;99.90
39957;DHT22;48483;44.640;7.494;2023-03-01T09:13:22;5.90;99.90
39957;DHT22;48483;44.640;7.494;2023-03-01T09:15:51;5.90;99.90
39957;DHT22;48483;44.640;7.494;2023-03-01T09:18:18;5.90;99.90
39957;DHT22;48483;44.640;7.494;2023-03-01T09:20:44;5.90;99.90
39957;DHT22;48483;44.640;7.494;2023-03-01T09:23:11;6.00;99.90
39957;DHT22;48483;44.640;7.494;2023-03-01T09:25:39;6.00;99.90
39957;DHT22;48483;44.640;7.494;2023-03-01T09:28:05;6.00;99.90
39957;DHT22;48483;44.640;7.494;2023-03-01T09:30:33;6.10;99.90
39957;DHT22;48483;44.640;7.494;2023-03-01T09:33:00;6.20;99.90
39957;DHT22;48483;44.640;7.494;2023-03-01T09:35:26;6.20;99.90
39957;DHT22;48483;44.640;7.494;2023-03-01T09:37:54;6.30;99.90
39957;DHT22;48483;44.640;7.494;2023-03-01T09:40:24;6.30;99.90
39957;DHT22;48483;44.640;7.494;2023-03-01T09:42:58;6.30;99.90
39957;DHT22;48483;44.640;7.494;2023-03-01T09:45:29;6.40;99.90
39957;DHT22;48483;44.640;7.494;2023-03-01T09:48:01;6.40;99.90
39957;DHT22;48483;44.640;7.494;2023-03-01T09:50:33;6.40;99.90
39957;DHT22;48483;44.640;7.494;2023-03-01T09:53:02;6.40;99.90
39957;DHT22;48483;44.640;7.494;2023-03-01T09:55:33;6.50;99.90
39957;DHT22;48483;44.640;7.494;2023-03-01T09:58:06;6.60;99.90
39957;DHT22;48483;44.640;7.494;2023-03-01T10:00:43;6.50;99.90
39957;DHT22;48483;44.640;7.494;2023-03-01T10:03:17;6.60;99.90
39957;DHT22;48483;44.640;7.494;2023-03-01T10:05:56;6.60;99.90
39957;DHT22;48483;44.640;7.494;2023-03-01T10:08:29;6.60;99.90
39957;DHT22;48483;44.640;7.494;2023-03-01T10:11:00;6.60;99.90
39957;DHT22;48483;44.640;7.494;2023-03-01T10:13:33;6.60;99.90
39957;DHT22;48483;44.640;7.494;2023-03-01T10:16:04;6.60;99.90
39957;DHT22;48483;44.640;7.494;2023-03-01T10:18:34;6.60;99.90
39957;DHT22;48483;44.640;7.494;2023-03-01T10:21:09;6.70;99.90
39957;DHT22;48483;44.640;7.494;2023-03-01T10:23:38;6.70;99.90
39957;DHT22;48483;44.640;7.494;2023-03-01T10:26:16;6.70;99.90
39957;DHT22;48483;44.640;7.494;2023-03-01T10:28:53;6.80;99.90
39957;DHT22;48483;44.640;7.494;2023-03-01T10:31:24;6.80;99.90
39957;DHT22;48483;44.640;7.494;2023-03-01T10:33:56;6.80;99.90
39957;DHT22;48483;44.640;7.494;2023-03-01T10:36:23;6.80;99.90
39957;DHT22;48483;44.640;7.494;2023-03-01T10:38:52;6.80;99.90
39957;DHT22;48483;44.640;7.494;2023-03-01T10:41:23;6.90;99.90
39957;DHT22;48483;44.640;7.494;2023-03-01T10:43:53;6.90;99.90
39957;DHT22;48483;44.640;7.494;2023-03-01T10:46:25;6.90;99.90
39957;DHT22;48483;44.640;7.494;2023-03-01T10:49:13;6.90;99.90
39957;DHT22;48483;44.640;7.494;2023-03-01T10:51:40;6.90;99.90
39957;DHT22;48483;44.640;7.494;2023-03-01T10:54:17;6.90;99.90
39957;DHT22;48483;44.640;7.494;2023-03-01T10:56:49;6.90;99.90
39957;DHT22;48483;44.640;7.494;2023-03-01T10:59:29;6.90;99.90
39957;DHT22;48483;44.640;7.494;2023-03-01T11:02:13;6.90;99.90
39957;DHT22;48483;44.640;7.494;2023-03-01T11:04:56;6.90;99.90
39957;DHT22;48483;44.640;7.494;2023-03-01T11:07:23;7.00;99.90
39957;DHT22;48483;44.640;7.494;2023-03-01T11:09:50;7.00;99.90
39957;DHT22;48483;44.640;7.494;2023-03-01T11:12:17;7.00;99.90
39957;DHT22;48483;44.640;7.494;2023-03-01T11:14:47;7.00;99.90
39957;DHT22;48483;44.640;7.494;2023-03-01T11:17:17;7.00;99.90
39957;DHT22;48483;44.640;7.494;2023-03-01T11:20:00;7.00;99.90
39957;DHT22;48483;44.640;7.494;2023-03-01T11:22:27;7.00;99.90
39957;DHT22;48483;44.640;7.494;2023-03-01T11:24:55;7.10;99.90
39957;DHT22;48483;44.640;7.494;2023-03-01T11:27:25;7.10;99.90
39957;DHT22;48483;44.640;7.494;2023-03-01T11:29:55;7.10;99.90
39957;DHT22;48483;44.640;7.494;2023-03-01T11:32:26;7.20;99.90
39957;DHT22;48483;44.640;7.494;2023-03-01T11:34:56;7.20;99.90
39957;DHT22;48483;44.640;7.494;2023-03-01T11:37:32;7.20;99.90
39957;DHT22;48483;44.640;7.494;2023-03-01T11:40:05;7.20;99.90
39957;DHT22;48483;44.640;7.494;2023-03-01T11:42:46;7.20;99.90
39957;DHT22;48483;44.640;7.494;2023-03-01T11:45:14;7.20;99.90
39957;DHT22;48483;44.640;7.494;2023-03-01T11:47:53;7.20;99.90
39957;DHT22;48483;44.640;7.494;2023-03-01T11:50:30;7.20;99.90
39957;DHT22;48483;44.640;7.494;2023-03-01T11:53:19;7.30;99.90
39957;DHT22;48483;44.640;7.494;2023-03-01T11:56:02;7.20;99.90
39957;DHT22;48483;44.640;7.494;2023-03-01T11:59:00;7.20;99.90
39957;DHT22;48483;44.640;7.494;2023-03-01T12:01:36;7.30;99.90
39957;DHT22;48483;44.640;7.494;2023-03-01T12:04:26;7.30;99.90
39957;DHT22;48483;44.640;7.494;2023-03-01T12:07:00;7.30;99.90
39957;DHT22;48483;44.640;7.494;2023-03-01T12:09:43;7.30;99.90
39957;DHT22;48483;44.640;7.494;2023-03-01T12:12:27;7.30;99.90
39957;DHT22;48483;44.640;7.494;2023-03-01T12:18:03;7.30;99.90
39957;DHT22;48483;44.640;7.494;2023-03-01T12:20:39;7.30;99.90
39957;DHT22;48483;44.640;7.494;2023-03-01T12:23:25;7.30;99.90
39957;DHT22;48483;44.640;7.494;2023-03-01T12:25:58;7.40;99.90
39957;DHT22;48483;44.640;7.494;2023-03-01T12:28:40;7.40;99.90
39957;DHT22;48483;44.640;7.494;2023-03-01T12:37:46;7.40;99.90
39957;DHT22;48483;44.640;7.494;2023-03-01T12:40:31;7.30;99.90
39957;DHT22;48483;44.640;7.494;2023-03-01T12:43:09;7.40;99.90
39957;DHT22;48483;44.640;7.494;2023-03-01T12:45:50;7.40;99.90
39957;DHT22;48483;44.640;7.494;2023-03-01T12:48:34;7.40;99.90
39957;DHT22;48483;44.640;7.494;2023-03-01T12:51:07;7.40;99.90
39957;DHT22;48483;44.640;7.494;2023-03-01T12:53:40;7.40;99.90
39957;DHT22;48483;44.640;7.494;2023-03-01T12:56:11;7.40;99.90
39957;DHT22;48483;44.640;7.494;2023-03-01T12:58:39;7.40;99.90
39957;DHT22;48483;44.640;7.494;2023-03-01T13:01:19;7.40;99.90
39957;DHT22;48483;44.640;7.494;2023-03-01T13:04:19;7.40;99.90
39957;DHT22;48483;44.640;7.494;2023-03-01T13:06:58;7.40;99.90
39957;DHT22;48483;44.640;7.494;2023-03-01T13:09:34;7.40;99.90
39957;DHT22;48483;44.640;7.494;2023-03-01T13:12:43;7.40;99.90
39957;DHT22;48483;44.640;7.494;2023-03-01T13:15:28;7.40;99.90
39957;DHT22;48483;44.640;7.494;2023-03-01T13:17:56;7.40;99.90
39957;DHT22;48483;44.640;7.494;2023-03-01T13:20:26;7.40;99.90
39957;DHT22;48483;44.640;7.494;2023-03-01T13:23:02;7.40;99.90
39957;DHT22;48483;44.640;7.494;2023-03-01T13:25:29;7.40;99.90
39957;DHT22;48483;44.640;7.494;2023-03-01T13:28:41;7.40;99.90
39957;DHT22;48483;44.640;7.494;2023-03-01T13:34:43;7.40;99.90
39957;DHT22;48483;44.640;7.494;2023-03-01T13:37:22;7.40;99.90
39957;DHT22;48483;44.640;7.494;2023-03-01T13:39:49;7.40;99.90
39957;DHT22;48483;44.640;7.494;2023-03-01T13:42:41;7.40;99.90
39957;DHT22;48483;44.640;7.494;2023-03-01T13:45:18;7.40;99.90
39957;DHT22;48483;44.640;7.494;2023-03-01T13:47:46;7.40;99.90
39957;DHT22;48483;44.640;7.494;2023-03-01T13:50:20;7.30;99.90
39957;DHT22;48483;44.640;7.494;2023-03-01T13:52:52;7.30;99.90
39957;DHT22;48483;44.640;7.494;2023-03-01T13:55:23;7.40;99.90
39957;DHT22;48483;44.640;7.494;2023-03-01T13:57:54;7.40;99.90
39957;DHT22;48483;44.640;7.494;2023-03-01T14:00:34;7.40;99.90
39957;DHT22;48483;44.640;7.494;2023-03-01T14:03:12;7.40;99.90
39957;DHT22;48483;44.640;7.494;2023-03-01T14:05:42;7.40;99.90
39957;DHT22;48483;44.640;7.494;2023-03-01T14:08:20;7.30;99.90
39957;DHT22;48483;44.640;7.494;2023-03-01T14:11:00;7.40;99.90
39957;DHT22;48483;44.640;7.494;2023-03-01T14:13:40;7.30;99.90
39957;DHT22;48483;44.640;7.494;2023-03-01T14:16:19;7.30;99.90
39957;DHT22;48483;44.640;7.494;2023-03-01T14:18:52;7.30;99.90
39957;DHT22;48483;44.640;7.494;2023-03-01T14:21:26;7.30;99.90
39957;DHT22;48483;44.640;7.494;2023-03-01T14:23:52;7.30;99.90
39957;DHT22;48483;44.640;7.494;2023-03-01T14:26:21;7.40;99.90
39957;DHT22;48483;44.640;7.494;2023-03-01T14:28:48;7.30;99.90
39957;DHT22;48483;44.640;7.494;2023-03-01T14:31:32;7.30;99.90
39957;DHT22;48483;44.640;7.494;2023-03-01T14:34:00;7.30;99.90
39957;DHT22;48483;44.640;7.494;2023-03-01T14:36:30;7.30;99.90
39957;DHT22;48483;44.640;7.494;2023-03-01T14:38:57;7.30;99.90
39957;DHT22;48483;44.640;7.494;2023-03-01T14:41:33;7.30;99.90
39957;DHT22;48483;44.640;7.494;2023-03-01T14:44:03;7.30;99.90
39957;DHT22;48483;44.640;7.494;2023-03-01T14:46:33;7.30;99.90
39957;DHT22;48483;44.640;7.494;2023-03-01T14:49:03;7.30;99.90
39957;DHT22;48483;44.640;7.494;2023-03-01T14:51:35;7.20;99.90
39957;DHT22;48483;44.640;7.494;2023-03-01T14:54:02;7.20;99.90
39957;DHT22;48483;44.640;7.494;2023-03-01T14:56:43;7.20;99.90
39957;DHT22;48483;44.640;7.494;2023-03-01T14:59:10;7.20;99.90
39957;DHT22;48483;44.640;7.494;2023-03-01T15:01:37;7.30;99.90
39957;DHT22;48483;44.640;7.494;2023-03-01T15:04:05;7.30;99.90
39957;DHT22;48483;44.640;7.494;2023-03-01T15:06:33;7.30;99.90
39957;DHT22;48483;44.640;7.494;2023-03-01T15:09:00;7.30;99.90
39957;DHT22;48483;44.640;7.494;2023-03-01T15:11:28;7.10;99.90
39957;DHT22;48483;44.640;7.494;2023-03-01T15:13:56;7.20;99.90
39957;DHT22;48483;44.640;7.494;2023-03-01T15:16:24;7.10;99.90
39957;DHT22;48483;44.640;7.494;2023-03-01T15:18:54;7.20;99.90
39957;DHT22;48483;44.640;7.494;2023-03-01T15:21:23;7.10;99.90
39957;DHT22;48483;44.640;7.494;2023-03-01T15:23:53;7.00;99.90
39957;DHT22;48483;44.640;7.494;2023-03-01T15:26:29;7.10;99.90
39957;DHT22;48483;44.640;7.494;2023-03-01T15:28:58;7.10;99.90
39957;DHT22;48483;44.640;7.494;2023-03-01T15:31:27;7.10;99.90
39957;DHT22;48483;44.640;7.494;2023-03-01T15:34:08;7.00;99.90
39957;DHT22;48483;44.640;7.494;2023-03-01T15:36:41;7.00;99.90
39957;DHT22;48483;44.640;7.494;2023-03-01T15:39:27;6.80;99.90
39957;DHT22;48483;44.640;7.494;2023-03-01T15:41:54;6.70;99.90
39957;DHT22;48483;44.640;7.494;2023-03-01T15:44:26;6.70;99.90
39957;DHT22;48483;44.640;7.494;2023-03-01T15:46:53;6.70;99.90
39957;DHT22;48483;44.640;7.494;2023-03-01T15:49:28;6.60;99.90
39957;DHT22;48483;44.640;7.494;2023-03-01T15:51:57;6.60;99.90
39957;DHT22;48483;44.640;7.494;2023-03-01T15:54:27;6.60;99.90
39957;DHT22;48483;44.640;7.494;2023-03-01T15:56:54;6.50;99.90
39957;DHT22;48483;44.640;7.494;2023-03-01T15:59:20;6.50;99.90
39957;DHT22;48483;44.640;7.494;2023-03-01T16:01:48;6.50;99.90
39957;DHT22;48483;44.640;7.494;2023-03-01T16:04:16;6.40;99.90
39957;DHT22;48483;44.640;7.494;2023-03-01T16:06:47;6.30;99.90
39957;DHT22;48483;44.640;7.494;2023-03-01T16:09:21;6.40;99.90
39957;DHT22;48483;44.640;7.494;2023-03-01T16:11:51;6.40;99.90
39957;DHT22;48483;44.640;7.494;2023-03-01T16:14:18;6.50;99.90
39957;DHT22;48483;44.640;7.494;2023-03-01T16:16:45;6.50;99.90